createdAt,value
2018-05-21T00:01:27.913Z,13.70
2018-05-21T00:03:55.682Z,13.70
2018-05-21T00:06:23.357Z,13.70
2018-05-21T00:08:51.040Z,13.70
2018-05-21T00:11:18.720Z,13.70
2018-05-21T00:13:46.389Z,13.70
2018-05-21T00:16:14.081Z,13.70
2018-05-21T00:18:42.532Z,13.80
2018-05-21T00:21:10.201Z,13.80
2018-05-21T00:23:37.906Z,13.80
2018-05-21T00:26:05.610Z,13.70
2018-05-21T00:28:33.290Z,13.70
2018-05-21T00:31:01.068Z,13.70
2018-05-21T00:33:28.753Z,13.80
2018-05-21T00:35:57.199Z,13.80
2018-05-21T00:38:24.880Z,13.80
2018-05-21T00:40:52.555Z,13.90
2018-05-21T00:43:20.997Z,13.70
2018-05-21T00:45:48.698Z,13.70
2018-05-21T00:48:17.164Z,13.80
2018-05-21T00:50:44.851Z,13.70
2018-05-21T00:53:13.309Z,13.70
2018-05-21T00:55:41.020Z,13.70
2018-05-21T00:58:08.702Z,13.60
2018-05-21T01:00:36.367Z,13.60
2018-05-21T01:03:04.061Z,13.50
2018-05-21T01:05:32.516Z,13.50
2018-05-21T01:08:00.200Z,13.50
2018-05-21T01:10:27.892Z,13.50
2018-05-21T01:12:55.595Z,13.50
2018-05-21T01:15:23.269Z,13.50
2018-05-21T01:17:50.953Z,13.60
2018-05-21T01:20:18.664Z,13.70
2018-05-21T01:22:46.343Z,13.70
2018-05-21T01:25:14.141Z,13.70
2018-05-21T01:27:41.813Z,13.70
2018-05-21T01:30:10.284Z,13.60
2018-05-21T01:32:37.960Z,13.60
2018-05-21T01:35:06.444Z,13.40
2018-05-21T01:37:34.899Z,13.20
2018-05-21T01:40:02.573Z,13.20
2018-05-21T01:42:30.262Z,13.30
2018-05-21T01:44:57.965Z,13.20
2018-05-21T01:47:25.656Z,13.10
2018-05-21T01:49:53.337Z,13.10
2018-05-21T01:52:21.780Z,13.00
2018-05-21T01:54:49.468Z,13.00
2018-05-21T01:57:17.168Z,13.00
2018-05-21T01:59:44.872Z,13.00
2018-05-21T02:02:12.557Z,13.10
2018-05-21T02:04:40.286Z,13.10
2018-05-21T02:07:07.981Z,13.20
2018-05-21T02:09:35.669Z,13.20
2018-05-21T02:12:04.165Z,13.10
2018-05-21T02:14:31.869Z,13.10
2018-05-21T02:16:59.557Z,13.00
2018-05-21T02:19:28.025Z,12.80
2018-05-21T02:21:55.705Z,12.80
2018-05-21T02:24:24.172Z,12.70
2018-05-21T02:26:51.867Z,12.70
2018-05-21T02:29:19.857Z,12.70
2018-05-21T02:31:47.554Z,12.70
2018-05-21T02:34:15.237Z,12.80
2018-05-21T02:36:43.688Z,12.50
2018-05-21T02:39:11.376Z,12.50
2018-05-21T02:41:39.852Z,12.70
2018-05-21T02:44:07.564Z,12.60
2018-05-21T02:46:35.256Z,12.70
2018-05-21T02:49:02.944Z,12.70
2018-05-21T02:51:30.714Z,12.70
2018-05-21T02:53:59.166Z,12.50
2018-05-21T02:56:26.853Z,12.40
2018-05-21T02:58:54.533Z,12.50
2018-05-21T03:01:22.983Z,12.40
2018-05-21T03:03:50.666Z,12.40
2018-05-21T03:06:19.112Z,12.30
2018-05-21T03:08:46.780Z,12.20
2018-05-21T03:11:14.460Z,12.30
2018-05-21T03:13:42.139Z,12.40
2018-05-21T03:16:10.585Z,12.20
2018-05-21T03:18:38.283Z,12.20
2018-05-21T03:21:06.748Z,12.30
2018-05-21T03:23:34.484Z,12.30
2018-05-21T03:26:02.156Z,12.30
2018-05-21T03:28:29.838Z,12.30
2018-05-21T03:30:57.517Z,12.20
2018-05-21T03:33:25.982Z,12.40
2018-05-21T03:35:54.673Z,12.40
2018-05-21T03:38:23.121Z,12.40
2018-05-21T03:40:50.809Z,12.40
2018-05-21T03:43:18.471Z,12.30
2018-05-21T03:45:46.149Z,12.20
2018-05-21T03:48:14.590Z,12.40
2018-05-21T03:50:43.280Z,12.40
2018-05-21T03:53:10.960Z,12.50
2018-05-21T03:55:38.641Z,12.50
2018-05-21T03:58:19.096Z,12.40
2018-05-21T04:00:59.369Z,12.20
2018-05-21T04:03:39.336Z,12.20
2018-05-21T04:06:07.021Z,12.30
2018-05-21T04:08:34.705Z,12.30
2018-05-21T04:11:02.396Z,12.40
2018-05-21T04:13:30.876Z,12.50
2018-05-21T04:15:59.325Z,12.50
2018-05-21T04:18:27.008Z,12.50
2018-05-21T04:20:54.773Z,12.40
2018-05-21T04:23:22.448Z,12.40
2018-05-21T04:25:50.893Z,12.30
2018-05-21T04:28:18.576Z,12.30
2018-05-21T04:30:46.251Z,12.20
2018-05-21T04:33:14.692Z,12.20
2018-05-21T04:35:42.397Z,12.20
2018-05-21T04:38:10.840Z,12.20
2018-05-21T04:40:38.545Z,12.10
2018-05-21T04:43:06.989Z,12.40
2018-05-21T04:45:34.673Z,12.30
2018-05-21T04:48:03.128Z,12.40
2018-05-21T04:50:30.794Z,12.40
2018-05-21T04:52:58.484Z,12.20
2018-05-21T04:55:26.930Z,12.10
2018-05-21T04:57:54.613Z,12.10
2018-05-21T05:00:22.296Z,12.20
2018-05-21T05:02:50.737Z,12.30
2018-05-21T05:05:18.426Z,12.30
2018-05-21T05:07:47.248Z,12.50
2018-05-21T05:10:14.960Z,12.50
2018-05-21T05:12:42.902Z,12.70
2018-05-21T05:15:10.675Z,12.70
2018-05-21T05:17:38.349Z,12.70
2018-05-21T05:20:06.128Z,13.00
2018-05-21T05:22:33.877Z,13.30
2018-05-21T05:25:01.621Z,13.40
2018-05-21T05:27:29.424Z,13.60
2018-05-21T05:29:57.164Z,13.80
2018-05-21T05:32:25.550Z,13.90
2018-05-21T05:34:53.321Z,14.10
2018-05-21T05:37:21.063Z,14.20
2018-05-21T05:39:48.760Z,14.40
2018-05-21T05:42:16.501Z,14.50
2018-05-21T05:44:44.213Z,14.60
2018-05-21T05:47:11.914Z,14.70
2018-05-21T05:49:39.598Z,14.90
2018-05-21T05:52:07.359Z,15.20
2018-05-21T05:54:35.066Z,15.20
2018-05-21T05:57:02.932Z,15.30
2018-05-21T05:59:30.712Z,15.40
2018-05-21T06:01:58.500Z,15.60
2018-05-21T06:04:26.215Z,15.60
2018-05-21T06:06:54.661Z,15.90
2018-05-21T06:09:22.344Z,15.90
2018-05-21T06:11:50.571Z,16.00
2018-05-21T06:14:18.361Z,16.00
2018-05-21T06:16:46.129Z,16.20
2018-05-21T06:19:13.892Z,16.20
2018-05-21T06:21:41.581Z,16.30
2018-05-21T06:24:10.073Z,16.40
2018-05-21T06:26:37.867Z,16.40
2018-05-21T06:29:05.665Z,16.50
2018-05-21T06:31:33.432Z,16.30
2018-05-21T06:34:01.296Z,16.10
2018-05-21T06:36:28.988Z,15.80
2018-05-21T06:38:57.464Z,15.80
2018-05-21T06:41:25.297Z,15.80
2018-05-21T06:43:53.008Z,15.80
2018-05-21T06:46:21.489Z,16.20
2018-05-21T06:48:49.980Z,16.40
2018-05-21T06:51:17.725Z,16.40
2018-05-21T06:53:46.223Z,16.90
2018-05-21T06:56:13.930Z,16.90
2018-05-21T06:58:41.716Z,17.20
2018-05-21T07:01:09.501Z,17.20
2018-05-21T07:03:37.985Z,17.60
2018-05-21T07:06:06.599Z,17.80
2018-05-21T07:08:34.309Z,17.80
2018-05-21T07:11:02.024Z,17.90
2018-05-21T07:13:29.846Z,18.00
2018-05-21T07:15:57.798Z,17.90
2018-05-21T07:18:25.516Z,18.10
2018-05-21T07:20:53.366Z,18.10
2018-05-21T07:23:21.108Z,18.20
2018-05-21T07:25:48.909Z,18.30
2018-05-21T07:28:16.606Z,18.40
2018-05-21T07:30:45.346Z,18.50
2018-05-21T07:33:13.879Z,18.50
2018-05-21T07:35:41.591Z,18.40
2018-05-21T07:38:10.133Z,18.90
2018-05-21T07:40:37.833Z,18.90
2018-05-21T07:43:06.590Z,19.00
2018-05-21T07:45:34.344Z,19.00
2018-05-21T07:48:02.101Z,18.90
2018-05-21T07:50:29.874Z,18.80
2018-05-21T07:52:57.650Z,18.80
2018-05-21T07:55:25.392Z,18.90
2018-05-21T07:57:53.245Z,19.10
2018-05-21T08:00:21.064Z,19.40
2018-05-21T08:02:49.544Z,19.50
2018-05-21T08:05:18.179Z,19.80
2018-05-21T08:07:45.832Z,19.80
2018-05-21T08:10:13.697Z,19.70
2018-05-21T08:12:41.393Z,19.70
2018-05-21T08:15:09.144Z,19.80
2018-05-21T08:17:36.836Z,19.80
2018-05-21T08:20:04.790Z,19.90
2018-05-21T08:22:32.502Z,20.10
2018-05-21T08:25:00.236Z,20.20
2018-05-21T08:27:27.966Z,20.50
2018-05-21T08:29:55.710Z,20.80
2018-05-21T08:32:23.441Z,20.40
2018-05-21T08:34:51.189Z,20.50
2018-05-21T08:37:18.977Z,20.80
2018-05-21T08:39:46.756Z,20.70
2018-05-21T08:42:14.489Z,20.80
2018-05-21T08:44:42.428Z,21.10
2018-05-21T08:47:10.207Z,21.40
2018-05-21T08:49:37.952Z,21.30
2018-05-21T08:52:06.129Z,21.20
2018-05-21T08:54:33.864Z,21.20
2018-05-21T08:57:01.560Z,20.90
2018-05-21T08:59:29.253Z,20.90
2018-05-21T09:01:57.743Z,21.20
2018-05-21T09:04:25.505Z,21.20
2018-05-21T09:06:53.985Z,21.40
2018-05-21T09:09:22.527Z,21.80
2018-05-21T09:11:50.260Z,21.80
2018-05-21T09:14:18.016Z,21.80
2018-05-21T09:16:45.733Z,21.50
2018-05-21T09:19:13.506Z,21.60
2018-05-21T09:21:41.248Z,21.70
2018-05-21T09:24:10.316Z,21.70
2018-05-21T09:26:38.037Z,21.80
2018-05-21T09:29:05.768Z,21.90
2018-05-21T09:31:33.869Z,21.80
2018-05-21T09:34:01.603Z,22.40
2018-05-21T09:36:29.287Z,22.50
2018-05-21T09:38:57.041Z,22.90
2018-05-21T09:41:24.880Z,22.90
2018-05-21T09:43:52.609Z,22.80
2018-05-21T09:46:21.152Z,22.90
2018-05-21T09:48:48.892Z,22.90
2018-05-21T09:51:16.726Z,22.20
2018-05-21T09:53:44.441Z,21.70
2018-05-21T09:56:12.248Z,21.10
2018-05-21T09:58:40.729Z,22.00
2018-05-21T10:01:09.260Z,21.90
2018-05-21T10:03:36.953Z,21.90
2018-05-21T10:06:04.729Z,22.00
2018-05-21T10:08:33.206Z,21.60
2018-05-21T10:11:00.980Z,21.60
2018-05-21T10:13:29.456Z,22.20
2018-05-21T10:15:57.977Z,22.30
2018-05-21T10:18:25.691Z,22.30
2018-05-21T10:20:53.461Z,22.40
2018-05-21T10:23:21.197Z,22.60
2018-05-21T10:25:48.936Z,22.40
2018-05-21T10:28:16.793Z,22.50
2018-05-21T10:30:44.528Z,23.40
2018-05-21T10:33:12.233Z,23.60
2018-05-21T10:35:39.981Z,23.60
2018-05-21T10:38:07.688Z,23.80
2018-05-21T10:40:35.376Z,24.10
2018-05-21T10:43:03.848Z,24.10
2018-05-21T10:45:31.561Z,24.10
2018-05-21T10:47:59.484Z,24.50
2018-05-21T10:50:27.982Z,24.60
2018-05-21T10:52:55.857Z,24.60
2018-05-21T10:55:23.541Z,24.40
2018-05-21T10:57:51.283Z,24.80
2018-05-21T11:00:19.091Z,25.20
2018-05-21T11:02:46.854Z,25.60
2018-05-21T11:05:14.604Z,25.90
2018-05-21T11:07:42.356Z,26.00
2018-05-21T11:10:10.134Z,26.40
2018-05-21T11:12:37.824Z,26.80
2018-05-21T11:15:06.253Z,26.00
2018-05-21T11:17:33.996Z,25.70
2018-05-21T11:20:02.518Z,26.70
2018-05-21T11:22:30.234Z,26.60
2018-05-21T11:24:57.963Z,27.00
2018-05-21T11:27:25.737Z,27.00
2018-05-21T11:29:53.656Z,27.30
2018-05-21T11:32:22.191Z,27.30
2018-05-21T11:34:49.991Z,27.30
2018-05-21T11:37:18.505Z,26.80
2018-05-21T11:39:46.263Z,26.70
2018-05-21T11:42:14.134Z,26.20
2018-05-21T11:44:41.891Z,26.80
2018-05-21T11:47:09.612Z,27.30
2018-05-21T11:49:37.465Z,27.20
2018-05-21T11:52:05.188Z,27.30
2018-05-21T11:54:32.889Z,27.30
2018-05-21T11:57:00.647Z,27.70
2018-05-21T11:59:28.354Z,27.80
2018-05-21T12:01:56.069Z,27.90
2018-05-21T12:04:24.145Z,28.20
2018-05-21T12:06:51.897Z,28.50
2018-05-21T12:09:19.604Z,27.00
2018-05-21T12:11:48.072Z,27.50
2018-05-21T12:14:15.813Z,27.50
2018-05-21T12:16:43.508Z,28.00
2018-05-21T12:19:11.211Z,28.10
2018-05-21T12:21:39.004Z,28.20
2018-05-21T12:24:06.709Z,28.20
2018-05-21T12:26:35.219Z,28.60
2018-05-21T12:29:02.941Z,28.60
2018-05-21T12:31:30.709Z,29.00
2018-05-21T12:33:58.400Z,29.00
2018-05-21T12:36:26.432Z,29.30
2018-05-21T12:38:54.143Z,29.90
2018-05-21T12:41:21.948Z,29.40
2018-05-21T12:43:49.645Z,29.20
2018-05-21T12:46:17.511Z,29.10
2018-05-21T12:48:46.059Z,28.20
2018-05-21T12:51:14.808Z,28.20
2018-05-21T12:53:42.763Z,28.10
2018-05-21T12:56:10.504Z,27.60
2018-05-21T12:58:39.045Z,28.40
2018-05-21T13:01:06.939Z,28.40
2018-05-21T13:03:34.691Z,28.20
2018-05-21T13:06:02.390Z,28.10
2018-05-21T13:08:30.956Z,28.90
2018-05-21T13:10:58.755Z,28.90
2018-05-21T13:13:26.481Z,29.30
2018-05-21T13:15:54.254Z,29.90
2018-05-21T13:18:21.956Z,30.20
2018-05-21T13:20:49.744Z,30.40
2018-05-21T13:23:17.468Z,30.40
2018-05-21T13:25:45.330Z,29.50
2018-05-21T13:28:13.789Z,27.90
2018-05-21T13:30:41.596Z,27.80
2018-05-21T13:33:09.297Z,27.60
2018-05-21T13:35:36.989Z,27.20
2018-05-21T13:38:05.541Z,26.90
2018-05-21T13:40:33.308Z,26.80
2018-05-21T13:43:01.081Z,26.80
2018-05-21T13:45:28.777Z,26.70
2018-05-21T13:47:56.502Z,26.50
2018-05-21T13:50:24.209Z,26.50
2018-05-21T13:52:51.992Z,26.60
2018-05-21T13:55:19.680Z,26.60
2018-05-21T13:57:47.417Z,26.50
2018-05-21T14:00:15.233Z,26.70
2018-05-21T14:02:42.980Z,27.10
2018-05-21T14:05:10.723Z,28.00
2018-05-21T14:07:38.504Z,28.50
2018-05-21T14:10:06.216Z,28.50
2018-05-21T14:12:34.853Z,29.20
2018-05-21T14:15:02.544Z,29.20
2018-05-21T14:17:30.275Z,28.60
2018-05-21T14:19:58.097Z,28.70
2018-05-21T14:22:26.008Z,28.30
2018-05-21T14:24:53.752Z,28.40
2018-05-21T14:27:21.514Z,28.70
2018-05-21T14:29:49.480Z,28.90
2018-05-21T14:32:17.118Z,28.50
2018-05-21T14:34:45.604Z,28.20
2018-05-21T14:37:13.403Z,28.20
2018-05-21T14:39:41.219Z,27.90
2018-05-21T14:42:08.993Z,27.70
2018-05-21T14:44:37.511Z,27.50
2018-05-21T14:47:05.253Z,27.40
2018-05-21T14:49:32.960Z,27.20
2018-05-21T14:52:00.659Z,27.40
2018-05-21T14:54:29.145Z,27.10
2018-05-21T14:56:57.657Z,27.00
2018-05-21T14:59:25.484Z,27.00
2018-05-21T15:01:54.009Z,27.40
2018-05-21T15:04:21.769Z,27.30
2018-05-21T15:06:49.519Z,27.50
2018-05-21T15:09:17.281Z,27.60
2018-05-21T15:11:45.012Z,28.00
2018-05-21T15:14:12.780Z,28.40
2018-05-21T15:16:40.880Z,28.00
2018-05-21T15:19:08.589Z,28.10
2018-05-21T15:21:36.334Z,28.10
2018-05-21T15:24:04.051Z,27.90
2018-05-21T15:26:32.601Z,27.50
2018-05-21T15:29:00.364Z,27.50
2018-05-21T15:31:28.121Z,27.50
2018-05-21T15:33:55.853Z,27.30
2018-05-21T15:36:23.574Z,27.30
2018-05-21T15:38:51.312Z,27.60
2018-05-21T15:41:19.031Z,27.60
2018-05-21T15:43:46.751Z,27.50
2018-05-21T15:46:14.496Z,27.20
2018-05-21T15:48:42.446Z,27.00
2018-05-21T15:51:10.213Z,26.70
2018-05-21T15:53:37.908Z,26.70
2018-05-21T15:56:05.694Z,26.40
2018-05-21T15:58:33.405Z,26.50
2018-05-21T16:01:01.165Z,26.00
2018-05-21T16:03:28.864Z,25.70
2018-05-21T16:05:56.730Z,25.40
2018-05-21T16:08:24.429Z,25.20
2018-05-21T16:10:53.008Z,25.00
2018-05-21T16:13:21.521Z,25.10
2018-05-21T16:15:49.264Z,25.00
2018-05-21T16:18:17.732Z,24.70
2018-05-21T16:20:46.232Z,24.60
2018-05-21T16:23:14.004Z,24.50
2018-05-21T16:25:42.468Z,23.90
2018-05-21T16:28:10.195Z,23.90
2018-05-21T16:30:37.928Z,23.70
2018-05-21T16:33:05.714Z,23.50
2018-05-21T16:35:33.457Z,23.50
2018-05-21T16:38:01.609Z,23.40
2018-05-21T16:40:29.414Z,23.20
2018-05-21T16:42:57.130Z,23.10
2018-05-21T16:45:24.846Z,23.00
2018-05-21T16:47:52.560Z,22.80
2018-05-21T16:50:20.401Z,22.90
2018-05-21T16:52:48.106Z,22.90
2018-05-21T16:55:15.858Z,22.90
2018-05-21T16:57:43.564Z,22.70
2018-05-21T17:00:11.327Z,22.70
2018-05-21T17:02:39.088Z,22.70
2018-05-21T17:05:06.859Z,22.50
2018-05-21T17:07:34.624Z,22.40
2018-05-21T17:10:02.529Z,22.30
2018-05-21T17:12:31.040Z,22.20
2018-05-21T17:14:58.777Z,22.10
2018-05-21T17:17:26.532Z,22.00
2018-05-21T17:19:55.061Z,21.60
2018-05-21T17:22:22.989Z,21.50
2018-05-21T17:24:51.965Z,21.20
2018-05-21T17:27:19.709Z,21.10
2018-05-21T17:29:47.451Z,21.10
2018-05-21T17:32:15.171Z,20.90
2018-05-21T17:34:43.744Z,20.60
2018-05-21T17:37:11.509Z,20.60
2018-05-21T17:39:39.257Z,20.50
2018-05-21T17:42:07.016Z,20.30
2018-05-21T17:44:34.777Z,20.20
2018-05-21T17:47:02.568Z,20.10
2018-05-21T17:49:30.347Z,20.10
2018-05-21T17:51:58.024Z,20.00
2018-05-21T17:54:25.748Z,19.90
2018-05-21T17:56:53.929Z,19.80
2018-05-21T17:59:21.674Z,19.70
2018-05-21T18:01:49.386Z,19.60
2018-05-21T18:04:17.110Z,19.60
2018-05-21T18:06:44.874Z,19.50
2018-05-21T18:09:12.669Z,19.40
2018-05-21T18:11:41.240Z,19.30
2018-05-21T18:14:09.765Z,19.20
2018-05-21T18:16:37.579Z,19.20
2018-05-21T18:19:05.313Z,19.20
2018-05-21T18:21:33.054Z,19.20
2018-05-21T18:24:00.769Z,19.10
2018-05-21T18:26:28.552Z,18.90
2018-05-21T18:28:57.246Z,18.80
2018-05-21T18:31:25.094Z,18.70
2018-05-21T18:33:53.585Z,18.50
2018-05-21T18:36:22.127Z,18.50
2018-05-21T18:38:49.881Z,18.50
2018-05-21T18:41:17.713Z,18.50
2018-05-21T18:43:45.414Z,18.20
2018-05-21T18:46:13.208Z,18.10
2018-05-21T18:48:40.948Z,18.10
2018-05-21T18:51:08.658Z,17.90
2018-05-21T18:53:36.382Z,18.00
2018-05-21T18:56:04.342Z,17.80
2018-05-21T18:58:32.039Z,17.90
2018-05-21T19:01:00.968Z,18.00
2018-05-21T19:03:28.682Z,17.90
2018-05-21T19:05:56.381Z,17.80
2018-05-21T19:08:24.125Z,17.60
2018-05-21T19:10:52.707Z,17.50
2018-05-21T19:13:21.222Z,17.70
2018-05-21T19:15:48.976Z,17.70
2018-05-21T19:18:16.717Z,17.60
2018-05-21T19:20:45.192Z,17.80
2018-05-21T19:23:12.947Z,17.70
2018-05-21T19:25:40.645Z,17.80
2018-05-21T19:28:08.382Z,17.70
2018-05-21T19:30:36.933Z,17.60
2018-05-21T19:33:05.170Z,17.60
2018-05-21T19:35:32.928Z,17.70
2018-05-21T19:38:00.634Z,17.60
2018-05-21T19:40:28.332Z,17.50
2018-05-21T19:42:56.086Z,17.50
2018-05-21T19:45:23.824Z,17.50
2018-05-21T19:47:51.630Z,17.40
2018-05-21T19:50:20.572Z,17.40
2018-05-21T19:52:48.342Z,17.30
2018-05-21T19:55:16.045Z,17.20
2018-05-21T19:57:44.558Z,17.40
2018-05-21T20:00:12.309Z,17.40
2018-05-21T20:02:40.883Z,17.20
2018-05-21T20:05:09.364Z,17.20
2018-05-21T20:07:37.866Z,17.00
2018-05-21T20:10:05.681Z,17.00
2018-05-21T20:12:33.430Z,17.00
2018-05-21T20:15:01.143Z,16.90
2018-05-21T20:17:29.650Z,17.10
2018-05-21T20:19:57.420Z,17.10
2018-05-21T20:22:25.205Z,17.10
2018-05-21T20:24:52.970Z,16.90
2018-05-21T20:27:20.705Z,16.80
2018-05-21T20:29:48.526Z,16.80
2018-05-21T20:32:16.246Z,16.90
2018-05-21T20:34:44.004Z,17.00
2018-05-21T20:37:11.759Z,16.90
2018-05-21T20:39:39.533Z,16.70
2018-05-21T20:42:07.270Z,16.50
2018-05-21T20:44:35.753Z,16.20
2018-05-21T20:47:04.216Z,16.10
2018-05-21T20:49:31.893Z,16.10
2018-05-21T20:52:00.349Z,16.10
2018-05-21T20:54:28.093Z,16.00
2018-05-21T20:56:55.773Z,16.00
2018-05-21T20:59:23.498Z,16.00
2018-05-21T21:01:51.209Z,16.00
2018-05-21T21:04:18.890Z,16.10
2018-05-21T21:06:46.589Z,16.10
2018-05-21T21:09:14.376Z,16.00
2018-05-21T21:11:42.061Z,16.00
2018-05-21T21:14:09.741Z,15.90
2018-05-21T21:16:38.175Z,16.00
2018-05-21T21:19:05.869Z,16.00
2018-05-21T21:21:33.613Z,15.90
2018-05-21T21:24:01.298Z,15.90
2018-05-21T21:26:29.977Z,15.90
2018-05-21T21:28:57.657Z,15.90
2018-05-21T21:31:26.116Z,15.80
2018-05-21T21:33:53.816Z,15.80
2018-05-21T21:36:21.516Z,15.80
2018-05-21T21:38:49.193Z,15.80
2018-05-21T21:41:17.148Z,15.80
2018-05-21T21:43:44.845Z,15.70
2018-05-21T21:46:13.296Z,15.80
2018-05-21T21:48:40.975Z,15.70
2018-05-21T21:51:08.654Z,15.80
2018-05-21T21:53:37.103Z,15.80
2018-05-21T21:56:04.834Z,15.80
2018-05-21T21:58:32.553Z,15.70
2018-05-21T22:01:00.360Z,15.60
2018-05-21T22:03:28.050Z,15.70
2018-05-21T22:05:55.719Z,15.60
2018-05-21T22:08:23.389Z,15.60
2018-05-21T22:10:51.072Z,15.60
2018-05-21T22:13:18.756Z,15.50
2018-05-21T22:15:46.444Z,15.50
2018-05-21T22:18:14.124Z,15.50
2018-05-21T22:20:41.897Z,15.60
2018-05-21T22:23:09.585Z,15.60
2018-05-21T22:25:37.257Z,15.60
2018-05-21T22:28:05.704Z,15.50
2018-05-21T22:30:33.405Z,15.50
2018-05-21T22:33:01.876Z,15.50
2018-05-21T22:35:30.324Z,15.40
2018-05-21T22:37:58.025Z,15.40
2018-05-21T22:40:26.493Z,15.40
2018-05-21T22:42:54.308Z,15.40
2018-05-21T22:45:22.272Z,15.40
2018-05-21T22:47:49.972Z,15.40
2018-05-21T22:50:17.662Z,15.40
2018-05-21T22:52:46.108Z,15.40
2018-05-21T22:55:13.798Z,15.40
2018-05-21T22:57:41.473Z,15.40
2018-05-21T23:00:10.021Z,15.30
2018-05-21T23:02:37.774Z,15.30
2018-05-21T23:05:05.487Z,15.30
2018-05-21T23:07:33.977Z,15.40
2018-05-21T23:10:01.708Z,15.40
2018-05-21T23:12:29.392Z,15.40
2018-05-21T23:14:57.864Z,15.40
2018-05-21T23:17:26.336Z,15.30
2018-05-21T23:19:54.019Z,15.30
2018-05-21T23:25:15.130Z,15.40
2018-05-21T23:27:42.897Z,15.50
2018-05-21T23:30:10.593Z,15.30
2018-05-21T23:32:38.337Z,15.40
2018-05-21T23:35:06.776Z,15.30
2018-05-21T23:37:34.465Z,15.30
2018-05-21T23:40:02.233Z,15.30
2018-05-21T23:42:30.682Z,15.30
2018-05-21T23:44:58.377Z,15.30
2018-05-21T23:47:26.829Z,15.30
2018-05-21T23:49:54.669Z,15.30
2018-05-21T23:52:22.357Z,15.20
2018-05-21T23:54:50.041Z,15.20
2018-05-21T23:57:17.725Z,15.20
2018-05-21T23:59:46.189Z,15.10
